createdAt,value
2014-09-13T00:00:12.865Z,17.62
2014-09-13T00:01:17.556Z,17.58
2014-09-13T00:02:22.543Z,17.48
2014-09-13T00:03:27.217Z,17.6
2014-09-13T00:04:31.893Z,17.6
2014-09-13T00:05:36.879Z,17.59
2014-09-13T00:06:41.850Z,17.52
2014-09-13T00:07:46.540Z,17.53
2014-09-13T00:08:51.214Z,17.55
2014-09-13T00:09:55.903Z,17.56
2014-09-13T00:11:00.576Z,17.61
2014-09-13T00:12:05.265Z,17.68
2014-09-13T00:13:10.238Z,17.8
2014-09-13T00:14:14.928Z,17.78
2014-09-13T00:15:19.602Z,17.87
2014-09-13T00:16:24.588Z,17.71
2014-09-13T00:17:29.262Z,17.7
2014-09-13T00:18:33.936Z,17.74
2014-09-13T00:19:38.625Z,17.64
2014-09-13T00:20:43.299Z,17.6
2014-09-13T00:21:48.284Z,17.72
2014-09-13T00:22:53.255Z,17.66
2014-09-13T00:23:57.945Z,17.47
2014-09-13T00:25:02.915Z,17.7
2014-09-13T00:26:07.605Z,17.64
2014-09-13T00:27:12.578Z,17.48
2014-09-13T00:28:17.267Z,17.55
2014-09-13T00:29:22.238Z,17.66
2014-09-13T00:30:27.224Z,17.5
2014-09-13T00:31:31.897Z,17.52
2014-09-13T00:32:36.571Z,17.52
2014-09-13T00:33:41.261Z,17.58
2014-09-13T00:34:46.247Z,17.69
2014-09-13T00:35:50.921Z,17.63
2014-09-13T00:36:55.923Z,17.68
2014-09-13T00:38:00.599Z,17.59
2014-09-13T00:39:05.288Z,17.83
2014-09-13T00:40:09.978Z,17.78
2014-09-13T00:41:14.948Z,17.77
2014-09-13T00:42:19.935Z,17.65
2014-09-13T00:43:24.624Z,17.76
2014-09-13T00:44:29.297Z,17.66
2014-09-13T00:45:33.987Z,17.72
2014-09-13T00:46:38.661Z,17.81
2014-09-13T00:47:43.647Z,17.79
2014-09-13T00:48:48.618Z,17.77
2014-09-13T00:49:53.307Z,17.72
2014-09-13T00:50:58.278Z,17.85
2014-09-13T00:52:02.967Z,17.76
2014-09-13T00:53:07.938Z,17.7
2014-09-13T00:54:12.628Z,17.61
2014-09-13T00:55:17.304Z,17.76
2014-09-13T00:56:22.290Z,17.78
2014-09-13T00:57:26.979Z,17.94
2014-09-13T00:58:31.653Z,17.79
2014-09-13T00:59:36.639Z,17.83
2014-09-13T01:00:41.313Z,17.75
2014-09-13T01:01:46.002Z,17.9
2014-09-13T01:02:50.676Z,17.78
2014-09-13T01:03:55.366Z,17.7
2014-09-13T01:05:00.337Z,17.77
2014-09-13T01:06:05.027Z,17.86
2014-09-13T01:07:09.701Z,17.84
2014-09-13T01:08:14.390Z,17.82
2014-09-13T01:09:19.064Z,17.87
2014-09-13T01:10:23.753Z,17.92
2014-09-13T01:11:28.427Z,17.8
2014-09-13T01:12:33.117Z,17.64
2014-09-13T01:13:37.806Z,17.63
2014-09-13T01:14:42.794Z,17.71
2014-09-13T01:15:47.467Z,17.66
2014-09-13T01:16:52.156Z,17.8
2014-09-13T01:17:57.127Z,17.86
2014-09-13T01:19:02.113Z,17.89
2014-09-13T01:20:07.084Z,17.94
2014-09-13T01:21:12.072Z,17.57
2014-09-13T01:22:17.043Z,17.77
2014-09-13T01:23:21.733Z,17.67
2014-09-13T01:24:26.406Z,17.68
2014-09-13T01:25:31.095Z,17.72
2014-09-13T01:26:35.784Z,17.73
2014-09-13T01:27:40.458Z,17.76
2014-09-13T01:28:45.150Z,17.68
2014-09-13T01:29:49.838Z,17.78
2014-09-13T01:30:54.529Z,17.77
2014-09-13T01:31:59.202Z,17.7
2014-09-13T01:33:03.876Z,17.7
2014-09-13T01:34:08.565Z,17.89
2014-09-13T01:35:13.551Z,17.84
2014-09-13T01:36:18.522Z,17.86
2014-09-13T01:37:23.212Z,17.77
2014-09-13T01:38:28.182Z,17.74
2014-09-13T01:39:32.872Z,17.8
2014-09-13T01:40:37.843Z,17.92
2014-09-13T01:41:42.532Z,17.82
2014-09-13T01:42:47.206Z,17.77
2014-09-13T01:43:52.192Z,17.86
2014-09-13T01:44:56.868Z,17.83
2014-09-13T01:46:01.854Z,17.86
2014-09-13T01:47:06.528Z,17.79
2014-09-13T01:48:11.217Z,17.77
2014-09-13T01:49:15.891Z,17.74
2014-09-13T01:50:20.581Z,17.72
2014-09-13T01:51:25.551Z,17.92
2014-09-13T01:52:30.538Z,17.72
2014-09-13T01:53:35.211Z,17.88
2014-09-13T01:54:39.901Z,17.8
2014-09-13T01:55:44.575Z,17.84
2014-09-13T01:56:49.264Z,17.93
2014-09-13T01:57:53.954Z,17.87
2014-09-13T01:58:58.628Z,17.9
2014-09-13T02:00:03.302Z,17.76
2014-09-13T02:01:08.288Z,17.71
2014-09-13T02:02:12.962Z,17.78
2014-09-13T02:03:17.652Z,17.74
2014-09-13T02:04:22.343Z,17.73
2014-09-13T02:05:27.017Z,17.6
2014-09-13T02:06:31.705Z,17.79
2014-09-13T02:07:36.396Z,17.54
2014-09-13T02:08:41.366Z,17.63
2014-09-13T02:09:46.056Z,17.57
2014-09-13T02:10:50.745Z,17.6
2014-09-13T02:11:55.716Z,17.53
2014-09-13T02:13:00.406Z,17.88
2014-09-13T02:14:05.095Z,17.75
2014-09-13T02:15:09.769Z,17.73
2014-09-13T02:16:14.459Z,17.69
2014-09-13T02:17:19.132Z,17.55
2014-09-13T02:18:23.806Z,17.51
2014-09-13T02:19:28.496Z,17.52
2014-09-13T02:20:33.184Z,17.64
2014-09-13T02:21:38.155Z,17.79
2014-09-13T02:22:42.845Z,17.72
2014-09-13T02:23:47.518Z,17.81
2014-09-13T02:24:52.505Z,17.86
2014-09-13T02:25:57.478Z,17.66
2014-09-13T02:27:02.464Z,17.62
2014-09-13T02:28:07.435Z,17.68
2014-09-13T02:29:12.422Z,17.69
2014-09-13T02:30:17.096Z,17.69
2014-09-13T02:31:21.769Z,17.62
2014-09-13T02:32:26.755Z,17.55
2014-09-13T02:33:31.445Z,17.62
2014-09-13T02:34:36.134Z,17.58
2014-09-13T02:35:40.808Z,17.56
2014-09-13T02:36:45.498Z,17.46
2014-09-13T02:37:49.484Z,17.61
2014-09-13T02:38:54.470Z,17.53
2014-09-13T02:39:59.144Z,17.7
2014-09-13T02:41:03.833Z,17.64
2014-09-13T02:42:08.803Z,17.56
2014-09-13T02:43:13.493Z,17.78
2014-09-13T02:44:18.185Z,17.78
2014-09-13T02:45:22.172Z,17.8
2014-09-13T02:46:27.157Z,17.84
2014-09-13T02:47:31.848Z,17.78
2014-09-13T02:48:36.522Z,17.77
2014-09-13T02:49:41.211Z,17.73
2014-09-13T02:50:45.901Z,17.75
2014-09-13T02:51:50.590Z,17.84
2014-09-13T02:52:55.280Z,17.62
2014-09-13T02:53:59.952Z,17.28
2014-09-13T02:55:04.939Z,17.55
2014-09-13T02:56:09.614Z,17.59
2014-09-13T02:57:14.303Z,17.56
2014-09-13T02:58:18.977Z,17.57
2014-09-13T02:59:23.667Z,17.48
2014-09-13T03:00:28.340Z,17.27
2014-09-13T03:01:33.030Z,17.2
2014-09-13T03:02:37.704Z,17.53
2014-09-13T03:03:42.690Z,17.45
2014-09-13T03:04:47.661Z,17.27
2014-09-13T03:05:52.646Z,17
2014-09-13T03:06:57.322Z,16.89
2014-09-13T03:08:02.012Z,17.2
2014-09-13T03:09:06.686Z,17.26
2014-09-13T03:10:11.359Z,17.11
2014-09-13T03:11:16.049Z,17.13
2014-09-13T03:12:20.737Z,17.2
2014-09-13T03:13:25.411Z,17.24
2014-09-13T03:14:30.085Z,17.25
2014-09-13T03:15:34.775Z,17.38
2014-09-13T03:16:39.449Z,17.29
2014-09-13T03:17:44.138Z,17.3
2014-09-13T03:18:49.110Z,17.28
2014-09-13T03:19:53.798Z,17.37
2014-09-13T03:20:58.769Z,17.5
2014-09-13T03:22:03.460Z,17.21
2014-09-13T03:23:08.134Z,17.26
2014-09-13T03:24:12.824Z,17.26
2014-09-13T03:25:17.498Z,17.33
2014-09-13T03:26:22.187Z,17.53
2014-09-13T03:27:27.174Z,17.49
2014-09-13T03:28:31.848Z,17.44
2014-09-13T03:29:36.833Z,17.44
2014-09-13T03:30:41.522Z,17.55
2014-09-13T03:31:46.196Z,17.57
2014-09-13T03:32:50.886Z,17.43
2014-09-13T03:33:55.562Z,17.38
2014-09-13T03:35:00.251Z,17.28
2014-09-13T03:36:04.925Z,17.35
2014-09-13T03:37:09.614Z,17.42
2014-09-13T03:38:14.287Z,17.51
2014-09-13T03:39:18.977Z,17.54
2014-09-13T03:40:23.948Z,17.47
2014-09-13T03:41:28.637Z,17.32
2014-09-13T03:42:33.608Z,17.46
2014-09-13T03:43:38.297Z,17.47
2014-09-13T03:44:42.987Z,17.43
2014-09-13T03:45:47.661Z,17.44
2014-09-13T03:46:52.647Z,17.55
2014-09-13T03:47:57.618Z,17.55
2014-09-13T03:49:02.308Z,17.54
2014-09-13T03:50:07.279Z,17.54
2014-09-13T03:51:11.970Z,17.59
2014-09-13T03:52:16.643Z,17.55
2014-09-13T03:53:21.629Z,17.43
2014-09-13T03:54:26.318Z,17.55
2014-09-13T03:55:30.992Z,17.68
2014-09-13T03:56:35.980Z,17.58
2014-09-13T03:57:40.950Z,17.57
2014-09-13T03:58:45.639Z,17.48
2014-09-13T03:59:50.313Z,17.52
2014-09-13T04:00:55.299Z,17.54
2014-09-13T04:01:59.973Z,17.51
2014-09-13T04:03:04.663Z,17.46
2014-09-13T04:04:09.337Z,17.25
2014-09-13T04:05:14.324Z,17.33
2014-09-13T04:06:19.591Z,17.31
2014-09-13T04:07:24.281Z,17.3
2014-09-13T04:08:29.267Z,17.21
2014-09-13T04:09:33.941Z,17.17
2014-09-13T04:10:38.615Z,17.2
2014-09-13T04:11:43.305Z,17.1
2014-09-13T04:12:47.994Z,16.98
2014-09-13T04:13:52.668Z,17.12
2014-09-13T04:14:57.656Z,17.18
2014-09-13T04:16:02.627Z,17.2
2014-09-13T04:17:07.316Z,17.08
2014-09-13T04:18:12.005Z,16.99
2014-09-13T04:19:16.679Z,16.97
2014-09-13T04:20:21.665Z,16.98
2014-09-13T04:21:26.339Z,16.94
2014-09-13T04:22:31.326Z,17
2014-09-13T04:23:35.999Z,17.09
2014-09-13T04:24:40.985Z,17.01
2014-09-13T04:25:45.675Z,17.03
2014-09-13T04:26:50.349Z,17.11
2014-09-13T04:27:55.336Z,17.2
2014-09-13T04:29:00.305Z,17.2
2014-09-13T04:30:05.276Z,17.05
2014-09-13T04:31:10.264Z,17.08
2014-09-13T04:32:15.236Z,17.34
2014-09-13T04:33:20.223Z,17.19
2014-09-13T04:34:24.896Z,17.08
2014-09-13T04:35:29.883Z,16.98
2014-09-13T04:36:34.869Z,16.88
2014-09-13T04:37:39.839Z,16.92
2014-09-13T04:38:44.528Z,17.05
2014-09-13T04:39:49.203Z,17.13
2014-09-13T04:40:53.893Z,16.54
2014-09-13T04:41:58.567Z,16.72
2014-09-13T04:43:03.241Z,16.65
2014-09-13T04:44:08.227Z,16.8
2014-09-13T04:45:12.916Z,16.9
2014-09-13T04:46:17.606Z,16.86
2014-09-13T04:47:22.295Z,16.84
2014-09-13T04:48:27.266Z,16.8
2014-09-13T04:49:31.940Z,16.7
2014-09-13T04:50:36.630Z,16.7
2014-09-13T04:51:41.303Z,16.87
2014-09-13T04:52:45.977Z,16.92
2014-09-13T04:53:50.964Z,16.87
2014-09-13T04:54:55.638Z,16.8
2014-09-13T04:56:00.327Z,16.69
2014-09-13T04:57:05.003Z,16.72
2014-09-13T04:58:09.988Z,17.07
2014-09-13T04:59:14.662Z,17.02
2014-09-13T05:00:19.649Z,16.96
2014-09-13T05:01:24.338Z,17.11
2014-09-13T05:02:29.309Z,17.04
2014-09-13T05:03:33.998Z,17
2014-09-13T05:04:38.672Z,16.93
2014-09-13T05:05:43.362Z,16.92
2014-09-13T05:06:48.332Z,16.83
2014-09-13T05:07:53.319Z,16.72
2014-09-13T05:08:57.993Z,16.56
2014-09-13T05:10:02.980Z,16.58
2014-09-13T05:11:07.654Z,16.86
2014-09-13T05:12:12.343Z,17.03
2014-09-13T05:13:17.314Z,17.23
2014-09-13T05:14:22.003Z,17.03
2014-09-13T05:15:26.973Z,17.22
2014-09-13T05:16:31.960Z,16.91
2014-09-13T05:17:36.634Z,16.67
2014-09-13T05:18:41.620Z,16.62
2014-09-13T05:19:46.294Z,16.82
2014-09-13T05:20:50.983Z,16.92
2014-09-13T05:21:55.657Z,17
2014-09-13T05:23:00.347Z,16.9
2014-09-13T05:24:05.318Z,16.91
2014-09-13T05:25:10.009Z,16.71
2014-09-13T05:26:14.683Z,16.65
2014-09-13T05:27:19.372Z,16.74
2014-09-13T05:28:24.343Z,16.83
2014-09-13T05:29:29.033Z,17.02
2014-09-13T05:30:33.707Z,16.67
2014-09-13T05:31:38.693Z,16.71
2014-09-13T05:32:43.665Z,16.76
2014-09-13T05:33:48.353Z,16.9
2014-09-13T05:34:53.325Z,16.98
2014-09-13T05:35:58.014Z,16.91
2014-09-13T05:37:02.985Z,16.88
2014-09-13T05:38:07.659Z,16.83
2014-09-13T05:39:12.645Z,16.95
2014-09-13T05:40:17.319Z,16.83
2014-09-13T05:41:22.009Z,16.88
2014-09-13T05:42:26.698Z,16.63
2014-09-13T05:43:31.372Z,16.83
2014-09-13T05:44:36.062Z,16.73
2014-09-13T05:45:40.735Z,16.72
2014-09-13T05:46:45.425Z,16.83
2014-09-13T05:47:50.115Z,16.87
2014-09-13T05:48:55.085Z,16.94
2014-09-13T05:50:00.071Z,17.19
2014-09-13T05:51:04.760Z,17.2
2014-09-13T05:52:09.436Z,17.26
2014-09-13T05:53:14.126Z,17.27
2014-09-13T05:54:19.096Z,17.24
2014-09-13T05:55:23.770Z,16.94
2014-09-13T05:56:28.757Z,17.22
2014-09-13T05:57:33.430Z,17.16
2014-09-13T05:58:38.121Z,17.28
2014-09-13T05:59:42.795Z,17.35
2014-09-13T06:00:47.499Z,17.3
2014-09-13T06:01:52.174Z,17.23
2014-09-13T06:02:56.863Z,17.34
2014-09-13T06:04:01.834Z,17.44
2014-09-13T06:05:06.508Z,17.32
2014-09-13T06:06:11.197Z,17.16
2014-09-13T06:07:15.871Z,17
2014-09-13T06:08:20.561Z,16.98
2014-09-13T06:09:25.235Z,17.17
2014-09-13T06:10:30.221Z,17.04
2014-09-13T06:11:35.191Z,17.06
2014-09-13T06:12:39.865Z,17.03
2014-09-13T06:13:44.554Z,17.05
2014-09-13T06:14:49.541Z,17.12
2014-09-13T06:15:54.214Z,17.08
2014-09-13T06:16:58.890Z,17.32
2014-09-13T06:18:03.580Z,17.42
2014-09-13T06:19:08.566Z,17.36
2014-09-13T06:20:13.240Z,17.22
2014-09-13T06:21:17.929Z,17.22
2014-09-13T06:22:22.899Z,17.09
2014-09-13T06:23:27.886Z,17.06
2014-09-13T06:24:32.872Z,17.12
2014-09-13T06:25:37.546Z,17.32
2014-09-13T06:26:42.220Z,17.56
2014-09-13T06:27:47.206Z,17.48
2014-09-13T06:28:51.880Z,17.5
2014-09-13T06:29:56.570Z,17.42
2014-09-13T06:31:01.541Z,17.18
2014-09-13T06:32:06.232Z,17.24
2014-09-13T06:33:11.218Z,17.04
2014-09-13T06:34:15.892Z,16.88
2014-09-13T06:35:20.582Z,17
2014-09-13T06:36:25.552Z,17.24
2014-09-13T06:37:30.226Z,17.38
2014-09-13T06:38:34.916Z,17.34
2014-09-13T06:39:39.590Z,17.23
2014-09-13T06:40:44.576Z,17.44
2014-09-13T06:41:49.250Z,17.47
2014-09-13T06:42:53.939Z,17.55
2014-09-13T06:43:58.613Z,17.32
2014-09-13T06:45:03.287Z,17.4
2014-09-13T06:46:07.977Z,17.3
2014-09-13T06:47:12.650Z,17.24
2014-09-13T06:48:17.637Z,17.16
2014-09-13T06:49:22.311Z,17.14
2014-09-13T06:50:26.999Z,17.39
2014-09-13T06:51:31.970Z,17.42
2014-09-13T06:52:36.660Z,17.6
2014-09-13T06:53:41.333Z,17.68
2014-09-13T06:54:46.320Z,17.52
2014-09-13T06:55:50.994Z,17.48
2014-09-13T06:56:55.683Z,17.4
2014-09-13T06:58:00.360Z,17.24
2014-09-13T06:59:05.048Z,17.42
2014-09-13T07:00:09.722Z,17.53
2014-09-13T07:01:14.709Z,17.19
2014-09-13T07:02:19.383Z,17.22
2014-09-13T07:03:24.369Z,17.18
2014-09-13T07:04:29.058Z,17.16
2014-09-13T07:05:34.030Z,17.32
2014-09-13T07:06:39.016Z,17.3
2014-09-13T07:07:43.689Z,17.34
2014-09-13T07:08:48.379Z,17.42
2014-09-13T07:09:53.053Z,17.21
2014-09-13T07:10:58.039Z,17.28
2014-09-13T07:12:02.713Z,17.31
2014-09-13T07:13:07.403Z,17.31
2014-09-13T07:14:12.076Z,17.24
2014-09-13T07:15:16.752Z,17.52
2014-09-13T07:16:21.442Z,17.57
2014-09-13T07:17:26.131Z,17.43
2014-09-13T07:18:30.804Z,17.42
2014-09-13T07:19:35.495Z,17.4
2014-09-13T07:20:40.184Z,17.56
2014-09-13T07:21:44.859Z,17.63
2014-09-13T07:22:49.549Z,17.69
2014-09-13T07:23:54.518Z,17.7
2014-09-13T07:24:59.208Z,17.7
2014-09-13T07:26:03.882Z,17.64
2014-09-13T07:27:08.556Z,17.55
2014-09-13T07:28:13.245Z,17.74
2014-09-13T07:29:17.935Z,17.65
2014-09-13T07:30:22.608Z,17.78
2014-09-13T07:31:27.298Z,17.57
2014-09-13T07:32:32.269Z,17.66
2014-09-13T07:33:36.958Z,17.68
2014-09-13T07:34:41.632Z,17.81
2014-09-13T07:35:46.306Z,17.64
2014-09-13T07:36:50.995Z,17.98
2014-09-13T07:37:55.685Z,17.76
2014-09-13T07:39:00.359Z,17.72
2014-09-13T07:40:05.049Z,17.63
2014-09-13T07:41:09.723Z,17.64
2014-09-13T07:42:14.413Z,17.53
2014-09-13T07:43:19.087Z,17.72
2014-09-13T07:44:23.760Z,17.8
2014-09-13T07:45:28.450Z,17.72
2014-09-13T07:46:33.124Z,17.88
2014-09-13T07:47:38.110Z,18
2014-09-13T07:48:42.784Z,18.09
2014-09-13T07:49:47.771Z,17.76
2014-09-13T07:50:52.758Z,17.67
2014-09-13T07:51:56.744Z,17.81
2014-09-13T07:53:01.434Z,17.89
2014-09-13T07:54:06.108Z,17.91
2014-09-13T07:55:10.797Z,18.05
2014-09-13T07:56:15.768Z,18.24
2014-09-13T07:57:20.754Z,18.09
2014-09-13T07:58:25.740Z,18.17
2014-09-13T07:59:30.413Z,18.07
2014-09-13T08:00:35.103Z,18.08
2014-09-13T08:01:39.792Z,18.16
2014-09-13T08:02:44.763Z,18.11
2014-09-13T08:03:49.453Z,18.17
2014-09-13T08:04:54.439Z,18.26
2014-09-13T08:05:59.412Z,18.3
2014-09-13T08:07:04.085Z,18.01
2014-09-13T08:08:08.775Z,17.82
2014-09-13T08:09:13.465Z,17.88
2014-09-13T08:10:18.139Z,17.86
2014-09-13T08:11:22.828Z,17.96
2014-09-13T08:12:27.502Z,17.87
2014-09-13T08:13:32.191Z,17.57
2014-09-13T08:14:36.865Z,17.71
2014-09-13T08:15:41.555Z,17.88
2014-09-13T08:16:46.229Z,17.66
2014-09-13T08:17:51.215Z,17.47
2014-09-13T08:18:56.201Z,17.53
2014-09-13T08:20:00.875Z,17.27
2014-09-13T08:21:05.862Z,17.28
2014-09-13T08:22:10.537Z,17.29
2014-09-13T08:23:15.226Z,17.45
2014-09-13T08:24:19.916Z,17.53
2014-09-13T08:25:24.589Z,17.84
2014-09-13T08:26:29.263Z,17.78
2014-09-13T08:27:34.249Z,17.74
2014-09-13T08:28:38.923Z,17.87
2014-09-13T08:29:43.612Z,17.95
2014-09-13T08:30:48.598Z,17.6
2014-09-13T08:31:53.570Z,17.57
2014-09-13T08:32:58.261Z,17.6
2014-09-13T08:34:02.935Z,17.76
2014-09-13T08:35:07.624Z,17.7
2014-09-13T08:36:12.298Z,17.8
2014-09-13T08:37:17.284Z,17.82
2014-09-13T08:38:22.254Z,17.96
2014-09-13T08:39:27.240Z,18
2014-09-13T08:40:31.914Z,18
2014-09-13T08:41:36.604Z,17.7
2014-09-13T08:42:41.278Z,17.74
2014-09-13T08:43:45.967Z,17.68
2014-09-13T08:44:50.250Z,18.08
2014-09-13T08:45:54.253Z,17.84
2014-09-13T08:46:58.967Z,17.58
2014-09-13T08:48:03.994Z,17.74
2014-09-13T08:49:08.765Z,17.88
2014-09-13T08:50:13.478Z,17.84
2014-09-13T08:51:18.478Z,17.73
2014-09-13T08:52:23.464Z,17.86
2014-09-13T08:53:28.169Z,17.82
2014-09-13T08:54:32.857Z,17.62
2014-09-13T08:55:37.561Z,17.68
2014-09-13T08:56:42.536Z,17.78
2014-09-13T08:57:47.230Z,17.56
2014-09-13T08:58:52.207Z,17.54
2014-09-13T08:59:56.902Z,17.68
2014-09-13T09:01:01.876Z,17.56
2014-09-13T09:02:06.568Z,17.51
2014-09-13T09:03:11.541Z,17.57
2014-09-13T09:04:16.236Z,17.6
2014-09-13T09:05:21.208Z,17.45
2014-09-13T09:06:25.898Z,17.62
2014-09-13T09:07:30.573Z,17.7
2014-09-13T09:08:35.561Z,17.91
2014-09-13T09:09:40.235Z,17.88
2014-09-13T09:10:44.926Z,17.7
2014-09-13T09:11:49.600Z,17.98
2014-09-13T09:12:54.289Z,17.76
2014-09-13T09:13:59.260Z,17.96
2014-09-13T09:15:04.246Z,18.3
2014-09-13T09:16:09.216Z,18.25
2014-09-13T09:17:13.890Z,18.36
2014-09-13T09:18:18.580Z,18.41
2014-09-13T09:19:23.269Z,18.52
2014-09-13T09:20:27.959Z,18.54
2014-09-13T09:21:32.632Z,18.5
2014-09-13T09:22:37.619Z,18.62
2014-09-13T09:23:42.590Z,18.59
2014-09-13T09:24:47.576Z,18.58
2014-09-13T09:25:52.547Z,18.58
2014-09-13T09:26:57.236Z,18.58
2014-09-13T09:28:02.208Z,18.4
2014-09-13T09:29:07.194Z,18.41
2014-09-13T09:30:11.868Z,18.44
2014-09-13T09:31:16.558Z,18.35
2014-09-13T09:32:21.233Z,18.7
2014-09-13T09:33:25.922Z,18.6
2014-09-13T09:34:30.612Z,18.54
2014-09-13T09:35:35.284Z,18.6
2014-09-13T09:36:39.958Z,18.63
2014-09-13T09:37:44.648Z,18.38
2014-09-13T09:38:49.322Z,18.5
2014-09-13T09:39:54.011Z,18.51
2014-09-13T09:40:58.685Z,18.67
2014-09-13T09:42:03.375Z,18.83
2014-09-13T09:43:08.064Z,18.88
2014-09-13T09:44:12.738Z,18.84
2014-09-13T09:45:17.428Z,18.84
2014-09-13T09:46:22.102Z,18.91
2014-09-13T09:47:26.792Z,18.99
2014-09-13T09:48:31.466Z,19.03
2014-09-13T09:49:36.452Z,18.96
2014-09-13T09:50:41.423Z,18.8
2014-09-13T09:51:46.112Z,18.92
2014-09-13T09:52:50.786Z,18.86
2014-09-13T09:53:55.476Z,19.04
2014-09-13T09:55:00.151Z,18.86
2014-09-13T09:56:04.840Z,18.94
2014-09-13T09:57:09.514Z,19.06
2014-09-13T09:58:14.203Z,19.02
2014-09-13T09:59:18.877Z,18.96
2014-09-13T10:00:23.567Z,18.88
2014-09-13T10:01:28.241Z,19
2014-09-13T10:02:33.227Z,19.08
2014-09-13T10:03:38.197Z,19.03
2014-09-13T10:04:43.183Z,19.15
2014-09-13T10:05:48.154Z,19.23
2014-09-13T10:06:52.843Z,19.06
2014-09-13T10:07:57.817Z,19.1
2014-09-13T10:09:02.506Z,19.1
2014-09-13T10:10:07.180Z,19.12
2014-09-13T10:11:12.166Z,19.09
2014-09-13T10:12:17.138Z,19.22
2014-09-13T10:13:21.827Z,19.26
2014-09-13T10:14:25.829Z,19.23
2014-09-13T10:15:30.799Z,19.14
2014-09-13T10:16:35.488Z,18.78
2014-09-13T10:17:40.459Z,18.96
2014-09-13T10:18:45.149Z,19.02
2014-09-13T10:19:49.838Z,18.92
2014-09-13T10:20:54.809Z,18.98
2014-09-13T10:21:59.795Z,18.92
2014-09-13T10:23:04.469Z,18.8
2014-09-13T10:24:09.158Z,18.9
2014-09-13T10:25:14.128Z,19.02
2014-09-13T10:26:19.118Z,18.99
2014-09-13T10:27:23.119Z,18.92
2014-09-13T10:28:28.091Z,18.77
2014-09-13T10:29:33.077Z,18.52
2014-09-13T10:30:37.766Z,18.52
2014-09-13T10:31:42.736Z,18.73
2014-09-13T10:32:47.427Z,18.56
2014-09-13T10:33:52.397Z,18.78
2014-09-13T10:34:57.384Z,18.94
2014-09-13T10:36:02.073Z,18.66
2014-09-13T10:37:07.044Z,18.8
2014-09-13T10:38:11.734Z,18.72
2014-09-13T10:39:16.407Z,18.78
2014-09-13T10:40:21.394Z,18.87
2014-09-13T10:41:26.083Z,18.74
2014-09-13T10:42:30.757Z,18.94
2014-09-13T10:43:35.447Z,19.13
2014-09-13T10:44:40.136Z,19.01
2014-09-13T10:45:44.810Z,19.12
2014-09-13T10:46:49.500Z,19.16
2014-09-13T10:47:54.173Z,19.22
2014-09-13T10:48:58.862Z,19.1
2014-09-13T10:50:03.553Z,19.24
2014-09-13T10:51:08.243Z,19.26
2014-09-13T10:52:12.932Z,19.1
2014-09-13T10:53:17.903Z,19
2014-09-13T10:54:22.593Z,18.99
2014-09-13T10:55:27.267Z,18.94
2014-09-13T10:56:31.955Z,19.13
2014-09-13T10:57:36.941Z,19.01
2014-09-13T10:58:41.912Z,19.12
2014-09-13T10:59:46.602Z,19.02
2014-09-13T11:00:51.588Z,18.98
2014-09-13T11:01:56.262Z,18.98
2014-09-13T11:03:00.952Z,19.17
2014-09-13T11:04:05.923Z,19.18
2014-09-13T11:05:10.613Z,19.3
2014-09-13T11:06:15.583Z,19.26
2014-09-13T11:07:20.571Z,19.32
2014-09-13T11:08:25.557Z,19.36
2014-09-13T11:09:30.232Z,19.33
2014-09-13T11:10:34.921Z,19.33
2014-09-13T11:11:39.610Z,19.24
2014-09-13T11:12:44.582Z,19.22
2014-09-13T11:13:49.567Z,19.11
2014-09-13T11:14:54.257Z,19.14
2014-09-13T11:15:58.931Z,19.06
2014-09-13T11:17:03.918Z,19.04
2014-09-13T11:18:08.592Z,19.06
2014-09-13T11:19:13.578Z,19.04
2014-09-13T11:20:18.252Z,19.25
2014-09-13T11:21:22.942Z,19.16
2014-09-13T11:22:27.927Z,19.07
2014-09-13T11:23:32.601Z,19.09
2014-09-13T11:24:37.290Z,19.1
2014-09-13T11:25:41.964Z,19.15
2014-09-13T11:26:46.951Z,19.11
2014-09-13T11:27:51.624Z,19.06
2014-09-13T11:28:56.611Z,19.34
2014-09-13T11:30:01.584Z,19.34
2014-09-13T11:31:06.273Z,19.28
2014-09-13T11:32:11.259Z,19.27
2014-09-13T11:33:16.246Z,19.36
2014-09-13T11:34:21.217Z,19.35
2014-09-13T11:35:25.906Z,19.2
2014-09-13T11:36:30.596Z,19.22
2014-09-13T11:37:35.566Z,19.22
2014-09-13T11:38:40.255Z,19.1
2014-09-13T11:39:45.227Z,19.3
2014-09-13T11:40:50.214Z,19.24
2014-09-13T11:41:54.887Z,19.21
2014-09-13T11:42:59.576Z,19.34
2014-09-13T11:44:04.266Z,19.04
2014-09-13T11:45:08.549Z,18.97
2014-09-13T11:46:13.239Z,18.94
2014-09-13T11:47:18.209Z,18.79
2014-09-13T11:48:22.899Z,18.49
2014-09-13T11:49:27.573Z,18.59
2014-09-13T11:50:32.262Z,18.74
2014-09-13T11:51:36.936Z,18.84
2014-09-13T11:52:41.626Z,19.02
2014-09-13T11:53:46.299Z,18.8
2014-09-13T11:54:50.988Z,18.81
2014-09-13T11:55:55.677Z,18.88
2014-09-13T11:57:00.354Z,18.8
2014-09-13T11:58:05.043Z,18.82
2014-09-13T11:59:10.014Z,18.84
2014-09-13T12:00:14.703Z,18.91
2014-09-13T12:01:19.689Z,18.84
2014-09-13T12:02:24.660Z,18.73
2014-09-13T12:03:29.350Z,18.81
2014-09-13T12:04:34.024Z,18.62
2014-09-13T12:05:38.697Z,18.89
2014-09-13T12:06:43.684Z,18.99
2014-09-13T12:07:48.373Z,18.69
2014-09-13T12:08:53.047Z,18.67
2014-09-13T12:09:57.049Z,18.63
2014-09-13T12:11:02.020Z,18.82
2014-09-13T12:12:06.709Z,18.91
2014-09-13T12:13:11.400Z,19.15
2014-09-13T12:14:16.074Z,19.06
2014-09-13T12:15:21.060Z,18.87
2014-09-13T12:16:25.734Z,18.92
2014-09-13T12:17:30.720Z,19.19
2014-09-13T12:18:35.394Z,19.08
2014-09-13T12:19:40.084Z,19.14
2014-09-13T12:20:44.772Z,19.19
2014-09-13T12:21:49.446Z,19.03
2014-09-13T12:22:54.136Z,18.9
2014-09-13T12:23:58.827Z,18.84
2014-09-13T12:25:03.502Z,18.75
2014-09-13T12:26:08.175Z,18.82
2014-09-13T12:27:12.864Z,18.76
2014-09-13T12:28:17.851Z,18.7
2014-09-13T12:29:22.525Z,18.62
2014-09-13T12:30:27.199Z,18.54
2014-09-13T12:31:31.888Z,18.44
2014-09-13T12:32:36.578Z,18.87
2014-09-13T12:33:40.564Z,18.92
2014-09-13T12:34:45.252Z,18.93
2014-09-13T12:35:50.239Z,18.82
2014-09-13T12:36:54.928Z,19.09
2014-09-13T12:37:59.602Z,18.94
2014-09-13T12:39:04.589Z,19
2014-09-13T12:40:09.561Z,19.02
2014-09-13T12:41:14.236Z,18.84
2014-09-13T12:42:18.926Z,18.82
2014-09-13T12:43:23.615Z,18.91
2014-09-13T12:44:28.288Z,18.84
2014-09-13T12:45:33.274Z,18.84
2014-09-13T12:46:38.245Z,18.9
2014-09-13T12:47:43.232Z,18.72
2014-09-13T12:48:47.905Z,18.73
2014-09-13T12:49:52.595Z,18.62
2014-09-13T12:50:57.863Z,18.73
2014-09-13T12:52:02.552Z,18.9
2014-09-13T12:53:07.242Z,18.88
2014-09-13T12:54:12.212Z,18.85
2014-09-13T12:55:16.901Z,18.92
2014-09-13T12:56:21.576Z,18.96
2014-09-13T12:57:26.266Z,19
2014-09-13T12:58:31.238Z,18.86
2014-09-13T12:59:36.224Z,18.67
2014-09-13T13:00:41.194Z,18.84
2014-09-13T13:01:46.181Z,18.63
2014-09-13T13:02:51.152Z,18.78
2014-09-13T13:03:55.842Z,18.62
2014-09-13T13:05:01.109Z,18.8
2014-09-13T13:06:05.799Z,18.74
2014-09-13T13:07:10.785Z,18.76
2014-09-13T13:08:15.459Z,18.94
2014-09-13T13:09:20.149Z,18.91
2014-09-13T13:10:25.416Z,18.92
2014-09-13T13:11:30.106Z,18.88
2014-09-13T13:12:34.794Z,19.05
2014-09-13T13:13:39.468Z,18.92
2014-09-13T13:14:44.158Z,18.95
2014-09-13T13:15:49.129Z,18.85
2014-09-13T13:16:54.116Z,18.72
2014-09-13T13:17:59.384Z,18.5
2014-09-13T13:19:04.371Z,18.5
2014-09-13T13:20:09.357Z,18.51
2014-09-13T13:21:14.031Z,18.75
2014-09-13T13:22:18.033Z,18.86
2014-09-13T13:23:22.707Z,18.78
2014-09-13T13:24:27.396Z,18.75
2014-09-13T13:25:32.367Z,18.85
2014-09-13T13:26:37.057Z,18.83
2014-09-13T13:27:41.730Z,18.96
2014-09-13T13:28:46.716Z,19.02
2014-09-13T13:29:51.390Z,18.91
2014-09-13T13:30:56.376Z,18.86
2014-09-13T13:32:01.052Z,18.89
2014-09-13T13:33:05.741Z,18.81
2014-09-13T13:34:10.712Z,18.63
2014-09-13T13:35:15.698Z,18.68
2014-09-13T13:36:20.371Z,18.49
2014-09-13T13:37:25.358Z,18.66
2014-09-13T13:38:30.032Z,18.73
2014-09-13T13:39:35.018Z,18.84
2014-09-13T13:40:39.693Z,18.88
2014-09-13T13:41:44.678Z,18.91
2014-09-13T13:42:49.666Z,19
2014-09-13T13:43:53.652Z,18.93
2014-09-13T13:44:58.342Z,18.92
2014-09-13T13:46:03.015Z,18.91
2014-09-13T13:47:07.704Z,18.98
2014-09-13T13:48:12.677Z,18.99
2014-09-13T13:49:17.366Z,19
2014-09-13T13:50:22.040Z,18.98
2014-09-13T13:51:27.322Z,19.01
2014-09-13T13:52:31.997Z,18.94
2014-09-13T13:53:36.687Z,19.02
2014-09-13T13:54:41.361Z,19.08
2014-09-13T13:55:45.363Z,19.15
2014-09-13T13:56:50.036Z,19.18
2014-09-13T13:57:54.726Z,19.12
2014-09-13T13:58:59.400Z,19.06